North Platte, Nebraska
Current Conditions -  °F | °C
As of 6:53 PM on Saturday 22 Nov 2014 (Local Time) from KLBF Reporting Station
Clear Clear  
Wind Chill:   Ceiling: Unl
Heat Index:   Visibility: 10mi
Dew Point: -4°   Wind: 8mph
Humidity: 60%   Direction: 110°ESE
Pressure: 29.51"   Gusts: NA
Location:  41.14°N, 100.76°W
Report Text: KLBF 230053Z AUTO 11007KT 10SM CLR 03/M04 A2951 RMK AO2 SLP019 T00331039 $
Loading
Personal Weather Stations






























Interactive Weather Map New forecast layout! Learn more

10-Day Weather Forecast

Advertisements
Track Severe Weather on mobile